createdAt,value
2023-05-24T00:01:27.315Z,101135.69
2023-05-24T00:04:02.404Z,101137.84
2023-05-24T00:06:36.122Z,101142.13
2023-05-24T00:09:07.102Z,101141.66
2023-05-24T00:11:37.350Z,101141.56
2023-05-24T00:14:08.067Z,101139.13
2023-05-24T00:16:38.711Z,101138.88
2023-05-24T00:19:12.438Z,101139.88
2023-05-24T00:21:43.202Z,101140.25
2023-05-24T00:24:14.219Z,101147.22
2023-05-24T00:26:44.857Z,101145.16
2023-05-24T00:29:16.315Z,101148.00
2023-05-24T00:31:48.286Z,101147.94
2023-05-24T00:34:18.941Z,101142.16
2023-05-24T00:36:49.224Z,101150.03
2023-05-24T00:39:20.510Z,101151.75
2023-05-24T00:41:52.656Z,101154.25
2023-05-24T00:44:25.368Z,101156.50
2023-05-24T00:46:57.681Z,101162.47
2023-05-24T00:49:29.515Z,101168.50
2023-05-24T00:52:01.370Z,101167.78
2023-05-24T00:54:32.648Z,101164.47
2023-05-24T00:57:03.988Z,101175.06
2023-05-24T00:59:35.701Z,101164.00
2023-05-24T01:02:08.299Z,101169.50
2023-05-24T01:04:39.610Z,101177.28
2023-05-24T01:07:31.774Z,101175.19
2023-05-24T01:10:09.734Z,101166.72
2023-05-24T01:13:22.180Z,101167.41
2023-05-24T01:15:55.825Z,101168.13
2023-05-24T01:18:33.467Z,101168.81
2023-05-24T01:21:22.543Z,101175.44
2023-05-24T01:23:55.468Z,101164.91
2023-05-24T01:26:44.098Z,101169.50
2023-05-24T01:29:15.428Z,101162.38
2023-05-24T01:31:46.652Z,101160.59
2023-05-24T01:34:17.036Z,101164.16
2023-05-24T01:36:49.309Z,101164.59
2023-05-24T01:39:19.873Z,101163.50
2023-05-24T01:42:05.726Z,101151.72
2023-05-24T01:44:52.560Z,101154.28
2023-05-24T01:47:51.947Z,101146.59
2023-05-24T01:50:36.203Z,101150.97
2023-05-24T01:53:10.670Z,101149.09
2023-05-24T01:55:40.900Z,101152.16
2023-05-24T01:58:12.835Z,101152.09
2023-05-24T02:00:44.941Z,101153.84
2023-05-24T02:03:19.731Z,101160.69
2023-05-24T02:05:50.204Z,101156.50
2023-05-24T02:08:21.287Z,101148.66
2023-05-24T02:10:51.941Z,101157.25
2023-05-24T02:13:22.626Z,101148.56
2023-05-24T02:15:54.888Z,101154.97
2023-05-24T02:18:25.482Z,101150.13
2023-05-24T02:20:55.399Z,101145.91
2023-05-24T02:23:25.742Z,101153.03
2023-05-24T02:25:57.009Z,101146.47
2023-05-24T02:28:27.377Z,101148.41
2023-05-24T02:30:57.373Z,101142.88
2023-05-24T02:33:28.027Z,101148.41
2023-05-24T02:35:58.471Z,101142.41
2023-05-24T02:38:28.857Z,101147.03
2023-05-24T02:40:58.612Z,101148.69
2023-05-24T02:43:29.220Z,101148.47
2023-05-24T02:45:59.177Z,101140.81
2023-05-24T02:48:29.522Z,101146.13
2023-05-24T02:50:59.498Z,101147.97
2023-05-24T02:53:29.873Z,101150.84
2023-05-24T02:56:00.655Z,101138.31
2023-05-24T02:58:33.713Z,101147.06
2023-05-24T03:01:03.719Z,101138.00
2023-05-24T03:03:34.379Z,101140.69
2023-05-24T03:06:04.701Z,101143.53
2023-05-24T03:08:38.537Z,101145.16
2023-05-24T03:11:08.867Z,101151.38
2023-05-24T03:13:39.436Z,101146.25
2023-05-24T03:16:09.681Z,101145.28
2023-05-24T03:18:40.050Z,101142.88
2023-05-24T03:21:09.991Z,101144.75
2023-05-24T03:23:40.944Z,101145.94
2023-05-24T03:26:10.893Z,101140.94
2023-05-24T03:28:44.462Z,101150.19
2023-05-24T03:31:14.565Z,101149.53
2023-05-24T03:33:45.154Z,101149.00
2023-05-24T03:36:15.203Z,101147.31
2023-05-24T03:38:46.107Z,101145.28
2023-05-24T03:41:16.097Z,101157.34
2023-05-24T03:43:46.592Z,101156.25
2023-05-24T03:46:19.574Z,101153.72
2023-05-24T03:48:50.981Z,101162.97
2023-05-24T03:51:21.320Z,101154.75
2023-05-24T03:53:51.770Z,101156.75
2023-05-24T03:56:21.752Z,101163.75
2023-05-24T03:58:53.469Z,101150.47
2023-05-24T04:01:33.176Z,101153.22
2023-05-24T04:04:07.674Z,101153.72
2023-05-24T04:06:39.269Z,101153.72
2023-05-24T04:09:11.128Z,101156.13
2023-05-24T04:11:41.324Z,101159.28
2023-05-24T04:14:14.419Z,101153.47
2023-05-24T04:16:46.171Z,101155.66
2023-05-24T04:19:16.630Z,101147.28
2023-05-24T04:21:47.196Z,101152.59
2023-05-24T04:24:17.556Z,101150.16
2023-05-24T04:26:48.896Z,101152.59
2023-05-24T04:29:20.034Z,101153.16
2023-05-24T04:31:50.459Z,101149.31
2023-05-24T04:34:23.552Z,101143.50
2023-05-24T04:36:54.263Z,101144.97
2023-05-24T04:39:24.673Z,101142.81
2023-05-24T04:41:56.277Z,101136.56
2023-05-24T04:44:27.061Z,101136.28
2023-05-24T04:46:57.081Z,101126.66
2023-05-24T04:49:27.451Z,101126.22
2023-05-24T04:51:58.401Z,101128.38
2023-05-24T04:54:28.753Z,101119.25
2023-05-24T04:56:58.716Z,101128.66
2023-05-24T04:59:29.044Z,101112.78
2023-05-24T05:01:59.238Z,101109.94
2023-05-24T05:04:29.969Z,101108.47
2023-05-24T05:06:59.997Z,101102.94
2023-05-24T05:09:31.391Z,101102.22
2023-05-24T05:12:01.921Z,101106.28
2023-05-24T05:14:32.384Z,101098.59
2023-05-24T05:17:02.124Z,101099.53
2023-05-24T05:19:32.597Z,101097.56
2023-05-24T05:22:02.719Z,101104.72
2023-05-24T05:24:33.257Z,101106.63
2023-05-24T05:27:03.196Z,101097.47
2023-05-24T05:29:33.520Z,101089.50
2023-05-24T05:32:03.344Z,101089.59
2023-05-24T05:34:33.675Z,101094.88
2023-05-24T05:37:03.830Z,101099.84
2023-05-24T05:39:34.434Z,101095.97
2023-05-24T05:42:04.459Z,101090.91
2023-05-24T05:44:35.060Z,101089.69
2023-05-24T05:47:06.996Z,101083.72
2023-05-24T05:49:37.715Z,101088.38
2023-05-24T05:52:07.881Z,101083.41
2023-05-24T05:54:38.231Z,101081.06
2023-05-24T05:57:11.663Z,101086.63
2023-05-24T05:59:42.038Z,101079.94
2023-05-24T06:02:13.929Z,101078.81
2023-05-24T06:04:44.500Z,101074.72
2023-05-24T06:07:14.437Z,101076.66
2023-05-24T06:09:44.204Z,101071.38
2023-05-24T06:12:14.481Z,101073.78
2023-05-24T06:14:44.489Z,101067.69
2023-05-24T06:17:14.802Z,101077.06
2023-05-24T06:19:47.318Z,101063.09
2023-05-24T06:22:17.665Z,101068.38
2023-05-24T06:24:48.086Z,101066.91
2023-05-24T06:27:18.452Z,101071.50
2023-05-24T06:29:48.415Z,101067.00
2023-05-24T06:32:18.925Z,101069.25
2023-05-24T06:34:48.969Z,101059.53
2023-05-24T06:37:19.291Z,101063.19
2023-05-24T06:39:49.300Z,101063.50
2023-05-24T06:42:19.666Z,101059.47
2023-05-24T06:44:49.664Z,101057.28
2023-05-24T06:47:20.484Z,101056.75
2023-05-24T06:49:51.110Z,101060.09
2023-05-24T06:52:21.384Z,101067.47
2023-05-24T06:54:51.805Z,101065.75
2023-05-24T06:57:22.220Z,101057.06
2023-05-24T06:59:52.289Z,101059.41
2023-05-24T07:02:27.766Z,101061.59
2023-05-24T07:04:58.488Z,101060.19
2023-05-24T07:07:28.827Z,101062.16
2023-05-24T07:09:58.803Z,101060.03
2023-05-24T07:12:28.596Z,101065.56
2023-05-24T07:14:58.961Z,101058.34
2023-05-24T07:17:28.925Z,101059.78
2023-05-24T07:19:59.455Z,101062.94
2023-05-24T07:22:30.902Z,101062.16
2023-05-24T07:25:01.278Z,101059.78
2023-05-24T07:27:31.175Z,101054.63
2023-05-24T07:30:01.508Z,101066.72
2023-05-24T07:32:31.906Z,101052.25
2023-05-24T07:35:02.322Z,101049.16
2023-05-24T07:37:32.296Z,101053.06
2023-05-24T07:40:03.203Z,101049.66
2023-05-24T07:42:33.425Z,101055.22
2023-05-24T07:45:04.534Z,101050.63
2023-05-24T07:47:34.734Z,101049.69
2023-05-24T07:50:05.723Z,101053.06
2023-05-24T07:52:36.360Z,101046.53
2023-05-24T07:55:07.808Z,101047.53
2023-05-24T07:57:37.757Z,101048.50
2023-05-24T08:00:15.491Z,101054.31
2023-05-24T08:02:47.420Z,101050.00
2023-05-24T08:05:18.650Z,101050.25
2023-05-24T08:07:48.626Z,101051.44
2023-05-24T08:10:20.652Z,101050.25
2023-05-24T08:12:56.256Z,101046.91
2023-05-24T08:15:26.633Z,101062.13
2023-05-24T08:17:56.816Z,101051.03
2023-05-24T08:20:27.393Z,101062.16
2023-05-24T08:22:57.746Z,101055.91
2023-05-24T08:25:28.557Z,101060.28
2023-05-24T08:27:58.783Z,101061.00
2023-05-24T08:30:29.301Z,101064.38
2023-05-24T08:32:59.677Z,101062.63
2023-05-24T08:35:30.108Z,101065.78
2023-05-24T08:38:09.191Z,101057.13
2023-05-24T08:40:40.299Z,101047.50
2023-05-24T08:43:15.141Z,101057.13
2023-05-24T08:45:47.234Z,101056.63
2023-05-24T08:48:19.326Z,101065.06
2023-05-24T08:50:54.488Z,101063.13
2023-05-24T08:53:25.232Z,101062.63
2023-05-24T08:55:57.366Z,101061.22
2023-05-24T08:58:27.639Z,101061.22
2023-05-24T09:00:58.082Z,101059.06
2023-05-24T09:03:28.364Z,101068.66
2023-05-24T09:05:59.753Z,101060.25
2023-05-24T09:08:30.435Z,101061.69
2023-05-24T09:11:01.586Z,101060.00
2023-05-24T09:13:36.321Z,101063.34
2023-05-24T09:16:08.312Z,101061.22
2023-05-24T09:18:38.618Z,101067.94
2023-05-24T09:21:10.015Z,101059.53
2023-05-24T09:23:40.063Z,101060.00
2023-05-24T09:26:11.814Z,101058.53
2023-05-24T09:28:43.256Z,101062.59
2023-05-24T09:31:14.915Z,101052.78
2023-05-24T09:33:45.508Z,101061.44
2023-05-24T09:36:19.307Z,101064.03
2023-05-24T09:38:51.283Z,101062.38
2023-05-24T09:41:22.253Z,101057.06
2023-05-24T09:43:54.631Z,101058.53
2023-05-24T09:46:24.768Z,101051.56
2023-05-24T09:49:07.911Z,101060.44
2023-05-24T09:51:40.848Z,101055.88
2023-05-24T09:54:11.253Z,101052.03
2023-05-24T09:56:42.036Z,101058.03
2023-05-24T10:02:11.402Z,101054.16
2023-05-24T10:04:42.189Z,101056.59
2023-05-24T10:07:13.533Z,101057.75
2023-05-24T10:09:46.183Z,101066.91
2023-05-24T10:12:17.334Z,101065.28
2023-05-24T10:14:47.675Z,101061.19
2023-05-24T10:17:17.801Z,101064.53
2023-05-24T10:19:48.168Z,101057.06
2023-05-24T10:22:18.850Z,101057.03
2023-05-24T10:24:50.273Z,101058.97
2023-05-24T10:27:24.773Z,101060.69
2023-05-24T10:30:35.969Z,101063.09
2023-05-24T10:33:10.621Z,101053.28
2023-05-24T10:35:42.119Z,101054.97
2023-05-24T10:38:12.830Z,101058.31
2023-05-24T10:40:44.843Z,101047.41
2023-05-24T10:43:15.025Z,101049.97
2023-05-24T10:45:51.061Z,101048.22
2023-05-24T10:48:30.157Z,101043.75
2023-05-24T10:51:02.351Z,101046.41
2023-05-24T10:53:42.114Z,101045.06
2023-05-24T10:56:15.858Z,101040.34
2023-05-24T10:58:59.995Z,101042.41
2023-05-24T11:01:33.015Z,101038.84
2023-05-24T11:04:10.220Z,101032.69
2023-05-24T11:07:04.453Z,101025.81
2023-05-24T11:09:35.514Z,101024.34
2023-05-24T11:12:09.804Z,101012.69
2023-05-24T11:14:41.423Z,101019.50
2023-05-24T11:17:24.013Z,101023.72
2023-05-24T11:19:56.827Z,101019.00
2023-05-24T11:22:28.044Z,101017.28
2023-05-24T11:25:01.236Z,101017.59
2023-05-24T11:27:34.292Z,101028.28
2023-05-24T11:30:05.556Z,101024.25
2023-05-24T11:32:37.244Z,101024.53
2023-05-24T11:35:10.109Z,101027.31
2023-05-24T11:40:17.465Z,101038.81
2023-05-24T11:42:48.054Z,101035.84
2023-05-24T11:45:23.074Z,101039.66
2023-05-24T11:47:53.421Z,101038.53
2023-05-24T11:50:28.486Z,101044.16
2023-05-24T11:53:04.938Z,101048.56
2023-05-24T11:55:35.188Z,101051.91
2023-05-24T11:58:13.216Z,101057.50
2023-05-24T12:00:45.036Z,101040.56
2023-05-24T12:03:15.751Z,101051.28
2023-05-24T12:05:46.245Z,101045.22
2023-05-24T12:08:19.578Z,101032.53
2023-05-24T12:10:51.945Z,101048.16
2023-05-24T12:13:27.631Z,101051.19
2023-05-24T12:15:59.356Z,101047.47
2023-05-24T12:18:30.312Z,101060.19
2023-05-24T12:21:00.486Z,101063.16
2023-05-24T12:23:33.109Z,101067.63
2023-05-24T12:26:04.534Z,101059.22
2023-05-24T12:28:40.088Z,101051.31
2023-05-24T12:31:11.236Z,101060.97
2023-05-24T12:33:41.625Z,101053.88
2023-05-24T12:36:12.795Z,101055.84
2023-05-24T12:38:43.225Z,101068.25
2023-05-24T12:41:14.254Z,101062.00
2023-05-24T12:43:45.533Z,101079.91
2023-05-24T12:46:15.581Z,101079.47
2023-05-24T12:48:46.551Z,101078.63
2023-05-24T12:51:16.669Z,101074.88
2023-05-24T12:53:47.569Z,101071.16
2023-05-24T12:56:17.818Z,101063.75
2023-05-24T12:58:48.523Z,101057.78
2023-05-24T13:01:19.334Z,101058.22
2023-05-24T13:03:49.720Z,101056.47
2023-05-24T13:06:23.881Z,101048.94
2023-05-24T13:08:54.736Z,101053.78
2023-05-24T13:11:26.415Z,101044.59
2023-05-24T13:16:40.664Z,101050.06
2023-05-24T13:19:11.477Z,101051.19
2023-05-24T13:21:41.864Z,101042.47
2023-05-24T13:24:12.298Z,101033.03
2023-05-24T13:26:42.737Z,101021.94
2023-05-24T13:31:46.367Z,101021.69
2023-05-24T13:34:16.915Z,101013.94
2023-05-24T13:36:47.535Z,101018.00
2023-05-24T13:39:17.955Z,101020.47
2023-05-24T13:41:48.358Z,101024.03
2023-05-24T13:44:19.073Z,101026.44
2023-05-24T13:46:49.247Z,101027.13
2023-05-24T13:49:19.896Z,101016.34
2023-05-24T13:51:50.523Z,101019.19
2023-05-24T13:54:20.891Z,101017.22
2023-05-24T13:56:51.151Z,101024.59
2023-05-24T13:59:21.476Z,101026.94
2023-05-24T14:01:51.734Z,101023.28
2023-05-24T14:04:22.130Z,101016.34
2023-05-24T14:06:54.164Z,101015.13
2023-05-24T14:09:24.900Z,101012.59
2023-05-24T14:11:55.348Z,101014.41
2023-05-24T14:16:58.602Z,101009.75
2023-05-24T14:19:29.077Z,100998.66
2023-05-24T14:21:59.088Z,100995.59
2023-05-24T14:24:30.940Z,100999.03
2023-05-24T14:27:00.902Z,101000.19
2023-05-24T14:29:30.678Z,100997.56
2023-05-24T14:32:01.141Z,101005.44
2023-05-24T14:34:31.034Z,101005.28
2023-05-24T14:37:00.837Z,101003.75
2023-05-24T14:39:31.519Z,100999.56
2023-05-24T14:42:02.290Z,100998.81
2023-05-24T14:44:32.774Z,101000.06
2023-05-24T14:47:02.797Z,100996.28
2023-05-24T14:49:33.114Z,101000.25
2023-05-24T14:52:03.090Z,100998.75
2023-05-24T14:54:33.415Z,100987.69
2023-05-24T14:57:03.605Z,100995.50
2023-05-24T14:59:35.966Z,100993.56
2023-05-24T15:04:49.210Z,100980.34
2023-05-24T15:07:19.457Z,100973.72
2023-05-24T15:09:49.905Z,100972.19
2023-05-24T15:12:19.886Z,100979.97
2023-05-24T15:17:33.348Z,100973.63
2023-05-24T15:20:04.033Z,100977.25
2023-05-24T15:22:35.139Z,100967.91
2023-05-24T15:25:06.087Z,100960.41
2023-05-24T15:27:36.037Z,100964.06
2023-05-24T15:30:06.204Z,100968.78
2023-05-24T15:32:36.585Z,100958.19
2023-05-24T15:35:07.923Z,100958.94
2023-05-24T15:37:38.223Z,100950.06
2023-05-24T15:40:10.817Z,100948.53
2023-05-24T15:42:41.310Z,100941.84
2023-05-24T15:45:12.229Z,100947.22
2023-05-24T15:47:42.623Z,100936.00
2023-05-24T15:50:12.918Z,100931.38
2023-05-24T15:52:43.346Z,100928.22
2023-05-24T15:55:13.333Z,100931.28
2023-05-24T15:57:43.824Z,100941.69
2023-05-24T16:00:14.508Z,100940.38
2023-05-24T16:02:44.658Z,100940.38
2023-05-24T16:05:14.704Z,100934.84
2023-05-24T16:07:45.141Z,100931.59
2023-05-24T16:10:15.282Z,100922.72
2023-05-24T16:12:45.651Z,100912.59
2023-05-24T16:15:15.695Z,100920.72
2023-05-24T16:17:46.105Z,100926.91
2023-05-24T16:20:16.128Z,100922.59
2023-05-24T16:22:50.955Z,100925.38
2023-05-24T16:25:21.043Z,100922.03
2023-05-24T16:27:51.569Z,100920.84
2023-05-24T16:30:23.579Z,100918.28
2023-05-24T16:32:54.203Z,100927.16
2023-05-24T16:35:24.234Z,100918.78
2023-05-24T16:40:37.394Z,100929.59
2023-05-24T16:43:07.377Z,100932.28
2023-05-24T16:45:37.474Z,100926.78
2023-05-24T16:48:08.127Z,100928.63
2023-05-24T16:50:38.197Z,100926.41
2023-05-24T16:53:08.677Z,100935.81
2023-05-24T16:55:38.600Z,100928.44
2023-05-24T16:58:09.182Z,100925.25
2023-05-24T17:00:39.127Z,100919.84
2023-05-24T17:03:09.860Z,100916.31
2023-05-24T17:05:40.790Z,100918.31
2023-05-24T17:08:11.180Z,100914.69
2023-05-24T17:10:44.256Z,100926.63
2023-05-24T17:13:14.913Z,100921.69
2023-05-24T17:15:44.946Z,100915.75
2023-05-24T17:18:15.400Z,100922.84
2023-05-24T17:20:45.436Z,100917.03
2023-05-24T17:23:16.089Z,100918.78
2023-05-24T17:25:46.063Z,100913.91
2023-05-24T17:28:16.455Z,100911.03
2023-05-24T17:30:46.792Z,100910.41
2023-05-24T17:36:07.099Z,100909.75
2023-05-24T17:38:40.659Z,100906.53
2023-05-24T17:41:10.836Z,100910.81
2023-05-24T17:43:41.693Z,100898.94
2023-05-24T17:46:12.212Z,100894.88
2023-05-24T17:48:43.976Z,100890.38
2023-05-24T17:51:14.193Z,100897.66
2023-05-24T17:53:44.777Z,100896.56
2023-05-24T17:56:15.057Z,100891.16
2023-05-24T17:58:47.396Z,100889.72
2023-05-24T18:01:20.178Z,100888.06
2023-05-24T18:03:50.624Z,100884.38
2023-05-24T18:06:20.366Z,100887.91
2023-05-24T18:08:50.890Z,100886.38
2023-05-24T18:11:21.051Z,100895.44
2023-05-24T18:13:51.769Z,100890.94
2023-05-24T18:16:21.829Z,100886.34
2023-05-24T18:18:52.293Z,100886.69
2023-05-24T18:21:24.051Z,100876.22
2023-05-24T18:23:54.528Z,100883.06
2023-05-24T18:26:24.463Z,100870.31
2023-05-24T18:28:54.949Z,100870.28
2023-05-24T18:31:25.452Z,100869.03
2023-05-24T18:33:56.295Z,100865.00
2023-05-24T18:36:26.314Z,100864.00
2023-05-24T18:38:56.904Z,100862.63
2023-05-24T18:41:27.103Z,100866.03
2023-05-24T18:43:57.646Z,100859.03
2023-05-24T18:46:28.894Z,100856.88
2023-05-24T18:49:01.489Z,100852.50
2023-05-24T18:51:34.125Z,100843.84
2023-05-24T18:54:04.605Z,100841.16
2023-05-24T18:56:54.323Z,100841.09
2023-05-24T18:59:30.452Z,100839.44
2023-05-24T19:02:02.062Z,100843.41
2023-05-24T19:04:32.756Z,100845.38
2023-05-24T19:07:02.694Z,100840.66
2023-05-24T19:09:32.640Z,100843.72
2023-05-24T19:12:17.133Z,100839.56
2023-05-24T19:14:47.601Z,100837.34
2023-05-24T19:17:17.976Z,100837.53
2023-05-24T19:19:49.170Z,100840.84
2023-05-24T19:22:19.522Z,100831.44
2023-05-24T19:25:09.545Z,100832.84
2023-05-24T19:27:47.722Z,100833.19
2023-05-24T19:30:28.362Z,100881.38
2023-05-24T19:32:58.794Z,100848.28
2023-05-24T19:35:28.878Z,100849.81
2023-05-24T19:37:58.669Z,100846.84
2023-05-24T19:40:33.239Z,100842.09
2023-05-24T19:43:03.500Z,100841.41
2023-05-24T19:45:33.837Z,100840.31
2023-05-24T19:48:03.823Z,100842.06
2023-05-24T19:50:36.862Z,100834.34
2023-05-24T19:53:07.277Z,100840.97
2023-05-24T19:55:37.754Z,100842.44
2023-05-24T19:58:07.798Z,100846.97
2023-05-24T20:00:38.262Z,100840.84
2023-05-24T20:03:08.324Z,100842.81
2023-05-24T20:05:38.793Z,100834.66
2023-05-24T20:08:08.760Z,100841.22
2023-05-24T20:10:40.184Z,100848.63
2023-05-24T20:13:10.273Z,100845.63
2023-05-24T20:15:40.832Z,100843.66
2023-05-24T20:18:11.069Z,100838.66
2023-05-24T20:20:41.010Z,100850.19
2023-05-24T20:23:11.496Z,100854.97
2023-05-24T20:25:41.553Z,100857.00
2023-05-24T20:28:25.666Z,100855.47
2023-05-24T20:30:59.865Z,100848.56
2023-05-24T20:33:30.288Z,100851.88
2023-05-24T20:36:00.409Z,100861.28
2023-05-24T20:38:30.695Z,100861.38
2023-05-24T20:41:01.155Z,100859.56
2023-05-24T20:43:31.633Z,100855.22
2023-05-24T20:46:02.784Z,100856.78
2023-05-24T20:48:33.462Z,100871.41
2023-05-24T20:51:03.563Z,100869.03
2023-05-24T20:53:33.999Z,100864.41
2023-05-24T20:56:04.620Z,100871.28
2023-05-24T20:58:35.018Z,100873.44
2023-05-24T21:01:05.234Z,100869.19
2023-05-24T21:03:39.750Z,100865.34
2023-05-24T21:06:09.820Z,100874.25
2023-05-24T21:08:40.294Z,100872.00
2023-05-24T21:11:10.286Z,100871.28
2023-05-24T21:13:42.268Z,100876.84
2023-05-24T21:16:12.238Z,100882.56
2023-05-24T21:18:42.526Z,100878.09
2023-05-24T21:21:12.905Z,100880.03
2023-05-24T21:23:42.856Z,100875.72
2023-05-24T21:26:13.539Z,100884.97
2023-05-24T21:28:43.590Z,100881.91
2023-05-24T21:33:45.265Z,100882.63
2023-05-24T21:36:15.705Z,100888.09
2023-05-24T21:38:46.158Z,100888.63
2023-05-24T21:41:16.603Z,100895.75
2023-05-24T21:49:13.228Z,100897.81
2023-05-24T21:51:43.017Z,100896.91
2023-05-24T21:54:13.415Z,100897.84
2023-05-24T21:56:43.415Z,100893.00
2023-05-24T21:59:13.800Z,100895.16
2023-05-24T22:01:43.919Z,100896.75
2023-05-24T22:06:57.295Z,100903.84
2023-05-24T22:09:27.134Z,100896.53
2023-05-24T22:11:57.575Z,100899.91
2023-05-24T22:14:28.194Z,100904.72
2023-05-24T22:16:58.738Z,100902.06
2023-05-24T22:19:39.564Z,100905.94
2023-05-24T22:22:11.132Z,100910.56
2023-05-24T22:24:41.985Z,100920.38
2023-05-24T22:27:14.767Z,100928.91
2023-05-24T22:29:45.325Z,100924.44
2023-05-24T22:32:16.134Z,100933.56
2023-05-24T22:34:46.183Z,100926.44
2023-05-24T22:37:19.323Z,100931.97
2023-05-24T22:39:49.316Z,100935.19
2023-05-24T22:42:20.281Z,100937.41
2023-05-24T22:44:50.316Z,100938.59
2023-05-24T22:47:23.212Z,100939.13
2023-05-24T22:49:57.659Z,100942.44
2023-05-24T22:52:28.477Z,100951.47
2023-05-24T22:54:58.509Z,100944.66
2023-05-24T22:57:28.559Z,100955.66
2023-05-24T22:59:59.059Z,100949.91
2023-05-24T23:02:30.492Z,100955.97
2023-05-24T23:05:01.478Z,100952.47
2023-05-24T23:07:31.629Z,100962.22
2023-05-24T23:12:46.329Z,100960.13
2023-05-24T23:15:18.043Z,100970.91
2023-05-24T23:17:49.191Z,100971.66
2023-05-24T23:20:20.270Z,100969.00
2023-05-24T23:22:50.803Z,100965.13
2023-05-24T23:25:21.338Z,100975.16
2023-05-24T23:27:51.353Z,100979.09
2023-05-24T23:30:22.406Z,100983.72
2023-05-24T23:32:52.531Z,100978.75
2023-05-24T23:35:23.348Z,100987.47
2023-05-24T23:37:54.873Z,100987.59
2023-05-24T23:40:28.267Z,100992.94
2023-05-24T23:42:59.265Z,100990.22
2023-05-24T23:45:29.700Z,100993.06
2023-05-24T23:48:00.342Z,100996.06
2023-05-24T23:50:33.161Z,100999.66
2023-05-24T23:53:09.785Z,101003.31
2023-05-24T23:55:41.883Z,101013.28
2023-05-24T23:58:12.008Z,101011.31
